createdAt,value
2017-05-18T00:00:28.738Z,18.23
2017-05-18T00:01:30.578Z,18.21
2017-05-18T00:02:32.401Z,18.14
2017-05-18T00:03:34.220Z,18.12
2017-05-18T00:04:36.057Z,18.17
2017-05-18T00:05:37.880Z,18.15
2017-05-18T00:06:39.923Z,18.15
2017-05-18T00:07:41.764Z,18.14
2017-05-18T00:08:43.612Z,18.14
2017-05-18T00:09:45.457Z,18.17
2017-05-18T00:10:47.304Z,18.05
2017-05-18T00:11:49.218Z,18.10
2017-05-18T00:12:51.063Z,18.15
2017-05-18T00:13:52.910Z,18.17
2017-05-18T00:14:54.743Z,18.11
2017-05-18T00:15:56.589Z,18.18
2017-05-18T00:16:58.886Z,18.12
2017-05-18T00:18:00.713Z,18.17
2017-05-18T00:19:02.536Z,18.10
2017-05-18T00:20:04.387Z,18.20
2017-05-18T00:21:06.226Z,18.11
2017-05-18T00:22:08.045Z,18.05
2017-05-18T00:23:09.859Z,18.03
2017-05-18T00:24:11.697Z,18.02
2017-05-18T00:25:13.516Z,17.90
2017-05-18T00:26:15.335Z,17.97
2017-05-18T00:27:17.381Z,17.84
2017-05-18T00:28:19.225Z,17.78
2017-05-18T00:29:21.071Z,17.78
2017-05-18T00:30:22.912Z,17.75
2017-05-18T00:31:24.751Z,17.78
2017-05-18T00:32:26.617Z,17.78
2017-05-18T00:33:28.460Z,17.70
2017-05-18T00:34:30.287Z,17.71
2017-05-18T00:35:32.125Z,17.72
2017-05-18T00:36:33.974Z,17.70
2017-05-18T00:37:36.213Z,17.64
2017-05-18T00:38:38.060Z,17.62
2017-05-18T00:39:39.903Z,17.71
2017-05-18T00:40:41.721Z,17.63
2017-05-18T00:41:43.566Z,17.59
2017-05-18T00:42:45.677Z,17.52
2017-05-18T00:43:47.496Z,17.52
2017-05-18T00:44:49.337Z,17.62
2017-05-18T00:45:51.154Z,17.54
2017-05-18T00:46:53.000Z,17.56
2017-05-18T00:47:54.840Z,17.52
2017-05-18T00:48:56.664Z,17.56
2017-05-18T00:49:58.501Z,17.51
2017-05-18T00:51:00.326Z,17.55
2017-05-18T00:52:02.146Z,17.55
2017-05-18T00:53:03.984Z,17.52
2017-05-18T00:54:05.835Z,17.59
2017-05-18T00:55:07.674Z,17.56
2017-05-18T00:56:09.517Z,17.55
2017-05-18T00:57:11.362Z,17.54
2017-05-18T00:58:13.272Z,17.55
2017-05-18T00:59:15.092Z,17.54
2017-05-18T01:00:16.906Z,17.49
2017-05-18T01:01:18.729Z,17.55
2017-05-18T01:02:20.567Z,17.63
2017-05-18T01:03:22.515Z,17.52
2017-05-18T01:04:24.362Z,17.55
2017-05-18T01:05:26.205Z,17.51
2017-05-18T01:06:28.026Z,17.48
2017-05-18T01:07:29.870Z,17.44
2017-05-18T01:08:32.085Z,17.40
2017-05-18T01:09:33.931Z,17.38
2017-05-18T01:10:35.748Z,17.44
2017-05-18T01:11:37.592Z,17.41
2017-05-18T01:12:39.440Z,17.44
2017-05-18T01:13:41.287Z,17.41
2017-05-18T01:14:43.134Z,17.38
2017-05-18T01:15:44.978Z,17.40
2017-05-18T01:16:46.801Z,17.33
2017-05-18T01:17:48.639Z,17.26
2017-05-18T01:18:50.486Z,17.34
2017-05-18T01:19:52.328Z,17.30
2017-05-18T01:20:54.166Z,17.21
2017-05-18T01:21:55.987Z,17.30
2017-05-18T01:22:57.835Z,17.25
2017-05-18T01:23:59.976Z,17.14
2017-05-18T01:25:01.824Z,17.07
2017-05-18T01:26:03.662Z,17.16
2017-05-18T01:27:05.514Z,17.12
2017-05-18T01:28:07.365Z,17.14
2017-05-18T01:29:09.228Z,17.16
2017-05-18T01:30:11.075Z,17.18
2017-05-18T01:31:12.926Z,17.14
2017-05-18T01:32:14.765Z,17.15
2017-05-18T01:33:16.582Z,17.12
2017-05-18T01:34:18.721Z,17.14
2017-05-18T01:35:20.541Z,17.07
2017-05-18T01:36:22.358Z,17.03
2017-05-18T01:37:24.176Z,17.04
2017-05-18T01:38:26.019Z,17.04
2017-05-18T01:39:27.897Z,17.08
2017-05-18T01:40:29.743Z,17.04
2017-05-18T01:41:31.583Z,16.97
2017-05-18T01:42:33.428Z,16.97
2017-05-18T01:43:35.281Z,16.94
2017-05-18T01:44:37.513Z,16.98
2017-05-18T01:45:39.325Z,16.97
2017-05-18T01:46:41.145Z,16.89
2017-05-18T01:47:42.968Z,16.96
2017-05-18T01:48:44.816Z,16.86
2017-05-18T01:49:46.760Z,16.86
2017-05-18T01:50:48.607Z,16.89
2017-05-18T01:51:50.449Z,16.91
2017-05-18T01:52:52.299Z,16.88
2017-05-18T01:53:54.143Z,16.79
2017-05-18T01:54:56.191Z,16.82
2017-05-18T01:55:58.039Z,16.85
2017-05-18T01:56:59.869Z,16.85
2017-05-18T01:58:01.710Z,16.85
2017-05-18T01:59:03.556Z,16.86
2017-05-18T02:00:05.398Z,16.86
2017-05-18T02:01:07.243Z,16.91
2017-05-18T02:02:09.198Z,16.85
2017-05-18T02:03:11.103Z,16.75
2017-05-18T02:04:12.923Z,16.85
2017-05-18T02:05:14.765Z,16.81
2017-05-18T02:06:16.581Z,16.82
2017-05-18T02:07:18.403Z,16.88
2017-05-18T02:08:20.219Z,16.81
2017-05-18T02:09:22.039Z,16.83
2017-05-18T02:10:23.956Z,16.82
2017-05-18T02:11:25.800Z,16.82
2017-05-18T02:12:27.621Z,16.96
2017-05-18T02:13:29.439Z,16.96
2017-05-18T02:14:31.259Z,16.88
2017-05-18T02:15:33.553Z,16.91
2017-05-18T02:16:35.401Z,16.86
2017-05-18T02:17:37.246Z,16.85
2017-05-18T02:18:39.095Z,16.83
2017-05-18T02:19:40.938Z,16.81
2017-05-18T02:20:42.781Z,16.85
2017-05-18T02:21:44.602Z,16.88
2017-05-18T02:22:46.421Z,16.81
2017-05-18T02:23:48.232Z,16.78
2017-05-18T02:24:50.078Z,16.73
2017-05-18T02:25:52.124Z,16.75
2017-05-18T02:26:53.966Z,16.73
2017-05-18T02:27:55.782Z,16.67
2017-05-18T02:28:57.625Z,16.73
2017-05-18T02:29:59.470Z,16.73
2017-05-18T02:31:01.312Z,16.70
2017-05-18T02:32:03.159Z,16.60
2017-05-18T02:33:04.959Z,16.61
2017-05-18T02:34:06.773Z,16.57
2017-05-18T02:35:08.619Z,16.58
2017-05-18T02:36:10.762Z,16.56
2017-05-18T02:37:12.605Z,16.60
2017-05-18T02:38:14.447Z,16.58
2017-05-18T02:39:16.295Z,16.61
2017-05-18T02:40:18.131Z,16.66
2017-05-18T02:41:20.034Z,16.68
2017-05-18T02:42:21.840Z,16.70
2017-05-18T02:43:23.682Z,16.81
2017-05-18T02:44:25.530Z,16.73
2017-05-18T02:45:27.369Z,16.75
2017-05-18T02:46:29.487Z,16.71
2017-05-18T02:47:31.303Z,16.78
2017-05-18T02:48:33.126Z,16.71
2017-05-18T02:49:34.946Z,16.76
2017-05-18T02:50:36.787Z,16.70
2017-05-18T02:51:38.707Z,16.70
2017-05-18T02:52:40.548Z,16.71
2017-05-18T02:53:42.369Z,16.61
2017-05-18T02:54:44.191Z,16.68
2017-05-18T02:55:46.035Z,16.60
2017-05-18T02:56:47.983Z,16.58
2017-05-18T02:57:49.825Z,16.63
2017-05-18T02:58:51.669Z,16.63
2017-05-18T02:59:53.516Z,16.66
2017-05-18T03:00:55.358Z,16.64
2017-05-18T03:01:57.231Z,16.67
2017-05-18T03:02:59.081Z,16.58
2017-05-18T03:04:00.927Z,16.61
2017-05-18T03:05:02.770Z,16.61
2017-05-18T03:06:04.597Z,16.57
2017-05-18T03:07:06.738Z,16.56
2017-05-18T03:08:08.587Z,16.57
2017-05-18T03:09:10.439Z,16.56
2017-05-18T03:10:12.292Z,16.57
2017-05-18T03:11:14.110Z,16.57
2017-05-18T03:12:15.953Z,16.50
2017-05-18T03:13:17.774Z,16.53
2017-05-18T03:14:19.833Z,16.56
2017-05-18T03:15:21.791Z,16.49
2017-05-18T03:16:23.631Z,16.43
2017-05-18T03:17:25.779Z,16.58
2017-05-18T03:18:27.624Z,16.53
2017-05-18T03:19:29.444Z,16.60
2017-05-18T03:20:31.297Z,16.57
2017-05-18T03:21:33.140Z,16.56
2017-05-18T03:22:35.088Z,16.53
2017-05-18T03:23:36.933Z,16.57
2017-05-18T03:24:38.757Z,16.67
2017-05-18T03:25:40.610Z,16.76
2017-05-18T03:26:42.456Z,16.79
2017-05-18T03:27:44.598Z,16.89
2017-05-18T03:28:46.425Z,17.03
2017-05-18T03:29:48.273Z,17.11
2017-05-18T03:30:50.094Z,17.18
2017-05-18T03:31:51.940Z,17.38
2017-05-18T03:32:53.793Z,17.48
2017-05-18T03:33:55.639Z,17.58
2017-05-18T03:34:57.493Z,17.68
2017-05-18T03:35:59.346Z,17.82
2017-05-18T03:37:01.193Z,17.96
2017-05-18T03:38:03.242Z,18.10
2017-05-18T03:39:05.099Z,18.33
2017-05-18T03:40:06.949Z,18.44
2017-05-18T03:41:08.774Z,18.63
2017-05-18T03:42:10.621Z,18.81
2017-05-18T03:43:12.549Z,18.99
2017-05-18T03:44:14.373Z,19.21
2017-05-18T03:45:16.225Z,19.29
2017-05-18T03:46:18.070Z,19.44
2017-05-18T03:47:19.900Z,19.66
2017-05-18T03:48:21.857Z,19.71
2017-05-18T03:49:23.675Z,19.88
2017-05-18T03:50:25.534Z,20.03
2017-05-18T03:51:27.394Z,20.06
2017-05-18T03:52:29.238Z,20.16
2017-05-18T03:53:31.111Z,20.21
2017-05-18T03:54:32.939Z,20.33
2017-05-18T03:55:34.793Z,20.33
2017-05-18T03:56:36.646Z,20.52
2017-05-18T03:57:38.470Z,20.57
2017-05-18T03:58:40.372Z,20.61
2017-05-18T03:59:42.201Z,20.72
2017-05-18T04:00:44.057Z,20.82
2017-05-18T04:01:45.923Z,20.80
2017-05-18T04:02:47.780Z,20.85
2017-05-18T04:03:49.931Z,21.04
2017-05-18T04:04:51.786Z,21.10
2017-05-18T04:05:53.633Z,21.29
2017-05-18T04:06:55.496Z,21.40
2017-05-18T04:07:57.350Z,21.38
2017-05-18T04:08:59.300Z,21.38
2017-05-18T04:10:01.154Z,21.47
2017-05-18T04:11:02.986Z,21.52
2017-05-18T04:12:04.841Z,21.65
2017-05-18T04:13:06.726Z,21.79
2017-05-18T04:14:08.687Z,22.06
2017-05-18T04:15:10.536Z,22.15
2017-05-18T04:16:12.395Z,22.31
2017-05-18T04:17:14.247Z,22.57
2017-05-18T04:18:16.081Z,22.61
2017-05-18T04:19:17.929Z,22.75
2017-05-18T04:20:19.758Z,22.76
2017-05-18T04:21:21.587Z,22.91
2017-05-18T04:22:23.420Z,23.02
2017-05-18T04:23:25.274Z,23.01
2017-05-18T04:24:27.337Z,23.01
2017-05-18T04:25:29.162Z,23.17
2017-05-18T04:26:30.994Z,23.38
2017-05-18T04:27:32.847Z,23.43
2017-05-18T04:28:34.704Z,23.60
2017-05-18T04:29:36.563Z,23.51
2017-05-18T04:30:38.393Z,23.55
2017-05-18T04:31:40.248Z,23.73
2017-05-18T04:32:42.111Z,23.83
2017-05-18T04:33:43.964Z,24.03
2017-05-18T04:34:45.897Z,24.20
2017-05-18T04:35:47.748Z,24.40
2017-05-18T04:36:49.606Z,24.39
2017-05-18T04:37:51.469Z,24.37
2017-05-18T04:38:53.324Z,24.34
2017-05-18T04:39:55.180Z,24.43
2017-05-18T04:40:57.041Z,24.53
2017-05-18T04:41:58.897Z,24.85
2017-05-18T04:43:00.728Z,25.21
2017-05-18T04:44:02.557Z,25.54
2017-05-18T04:45:04.712Z,25.69
2017-05-18T04:46:06.553Z,25.85
2017-05-18T04:47:08.412Z,25.82
2017-05-18T04:48:10.267Z,25.94
2017-05-18T04:49:12.100Z,26.09
2017-05-18T04:50:13.958Z,26.15
2017-05-18T04:51:15.791Z,26.13
2017-05-18T04:52:17.651Z,26.21
2017-05-18T04:53:19.508Z,26.28
2017-05-18T04:54:21.365Z,26.30
2017-05-18T04:55:23.325Z,26.44
2017-05-18T04:56:25.175Z,26.60
2017-05-18T04:57:27.013Z,26.89
2017-05-18T04:58:28.878Z,27.02
2017-05-18T04:59:30.731Z,27.00
2017-05-18T05:00:32.692Z,26.99
2017-05-18T05:01:34.548Z,27.00
2017-05-18T05:02:36.410Z,26.88
2017-05-18T05:03:38.266Z,27.03
2017-05-18T05:04:40.096Z,27.07
2017-05-18T05:05:42.199Z,27.19
2017-05-18T05:06:44.059Z,27.36
2017-05-18T05:07:45.918Z,27.49
2017-05-18T05:08:47.772Z,27.50
2017-05-18T05:09:49.600Z,27.62
2017-05-18T05:10:51.484Z,27.69
2017-05-18T05:11:53.347Z,27.62
2017-05-18T05:12:55.177Z,27.49
2017-05-18T05:13:57.032Z,27.37
2017-05-18T05:14:58.891Z,27.19
2017-05-18T05:16:00.871Z,27.19
2017-05-18T05:17:02.725Z,27.19
2017-05-18T05:18:04.559Z,27.18
2017-05-18T05:19:06.416Z,27.25
2017-05-18T05:20:08.245Z,27.18
2017-05-18T05:21:10.305Z,27.02
2017-05-18T05:22:12.171Z,26.84
2017-05-18T05:23:14.028Z,26.66
2017-05-18T05:24:15.883Z,26.39
2017-05-18T05:25:17.738Z,26.15
2017-05-18T05:26:19.591Z,25.99
2017-05-18T05:27:21.453Z,25.90
2017-05-18T05:28:23.307Z,25.72
2017-05-18T05:29:25.162Z,25.65
2017-05-18T05:30:27.017Z,25.46
2017-05-18T05:31:29.268Z,25.32
2017-05-18T05:32:31.125Z,25.21
2017-05-18T05:33:32.961Z,25.15
2017-05-18T05:34:34.821Z,25.08
2017-05-18T05:35:36.859Z,24.80
2017-05-18T05:36:38.785Z,24.71
2017-05-18T05:37:40.641Z,24.53
2017-05-18T05:38:42.498Z,24.46
2017-05-18T05:39:44.325Z,24.31
2017-05-18T05:40:46.179Z,24.24
2017-05-18T05:41:48.236Z,24.05
2017-05-18T05:42:50.086Z,23.90
2017-05-18T05:43:51.940Z,23.73
2017-05-18T05:44:53.817Z,23.60
2017-05-18T05:45:55.640Z,23.55
2017-05-18T05:46:57.569Z,23.46
2017-05-18T05:47:59.404Z,23.35
2017-05-18T05:49:01.254Z,23.23
2017-05-18T05:50:03.103Z,23.12
2017-05-18T05:51:04.934Z,23.09
2017-05-18T05:52:07.090Z,22.98
2017-05-18T05:53:08.915Z,22.91
2017-05-18T05:54:10.750Z,22.80
2017-05-18T05:55:12.599Z,22.79
2017-05-18T05:56:14.427Z,22.73
2017-05-18T05:57:16.277Z,22.72
2017-05-18T05:58:18.106Z,22.68
2017-05-18T05:59:19.965Z,22.68
2017-05-18T06:00:21.817Z,22.60
2017-05-18T06:01:23.672Z,22.47
2017-05-18T06:02:25.800Z,22.49
2017-05-18T06:03:27.652Z,22.47
2017-05-18T06:04:29.481Z,22.49
2017-05-18T06:05:31.317Z,22.54
2017-05-18T06:06:33.165Z,22.52
2017-05-18T06:07:35.307Z,22.58
2017-05-18T06:08:37.116Z,22.55
2017-05-18T06:09:38.972Z,22.55
2017-05-18T06:10:40.798Z,22.60
2017-05-18T06:11:42.628Z,22.61
2017-05-18T06:12:44.486Z,22.58
2017-05-18T06:13:46.354Z,22.58
2017-05-18T06:14:48.214Z,22.57
2017-05-18T06:15:50.067Z,22.55
2017-05-18T06:16:51.925Z,22.64
2017-05-18T06:17:54.228Z,22.62
2017-05-18T06:18:56.059Z,22.68
2017-05-18T06:19:57.919Z,22.65
2017-05-18T06:20:59.768Z,22.72
2017-05-18T06:22:01.622Z,22.67
2017-05-18T06:23:03.674Z,22.65
2017-05-18T06:24:05.523Z,22.62
2017-05-18T06:25:07.375Z,22.68
2017-05-18T06:26:09.208Z,22.76
2017-05-18T06:27:11.063Z,22.73
2017-05-18T06:28:12.916Z,22.77
2017-05-18T06:29:14.780Z,22.75
2017-05-18T06:30:16.625Z,22.73
2017-05-18T06:31:18.477Z,22.76
2017-05-18T06:32:20.304Z,22.79
2017-05-18T06:33:22.266Z,22.76
2017-05-18T06:34:24.113Z,22.79
2017-05-18T06:35:25.969Z,22.77
2017-05-18T06:36:27.821Z,22.73
2017-05-18T06:37:29.648Z,22.77
2017-05-18T06:38:31.801Z,22.77
2017-05-18T06:39:33.655Z,22.83
2017-05-18T06:40:35.505Z,22.75
2017-05-18T06:41:37.362Z,22.85
2017-05-18T06:42:39.217Z,22.80
2017-05-18T06:43:41.069Z,22.75
2017-05-18T06:44:42.893Z,22.85
2017-05-18T06:45:44.725Z,22.86
2017-05-18T06:46:46.573Z,22.83
2017-05-18T06:47:48.431Z,23.02
2017-05-18T06:48:50.286Z,23.07
2017-05-18T06:49:52.140Z,23.19
2017-05-18T06:50:53.970Z,23.17
2017-05-18T06:51:55.823Z,23.10
2017-05-18T06:52:57.677Z,23.23
2017-05-18T06:53:59.630Z,23.05
2017-05-18T06:55:01.486Z,22.97
2017-05-18T06:56:03.341Z,23.01
2017-05-18T06:57:05.193Z,23.02
2017-05-18T06:58:07.054Z,23.04
2017-05-18T06:59:08.901Z,22.98
2017-05-18T07:00:10.752Z,22.98
2017-05-18T07:01:12.609Z,22.94
2017-05-18T07:02:14.461Z,22.90
2017-05-18T07:03:16.290Z,22.80
2017-05-18T07:04:18.415Z,22.82
2017-05-18T07:05:20.274Z,22.94
2017-05-18T07:06:22.130Z,22.95
2017-05-18T07:07:23.982Z,22.94
2017-05-18T07:08:25.837Z,22.91
2017-05-18T07:09:27.689Z,23.00
2017-05-18T07:10:29.527Z,23.09
2017-05-18T07:11:31.373Z,22.98
2017-05-18T07:12:33.198Z,23.00
2017-05-18T07:13:35.028Z,23.01
2017-05-18T07:14:36.986Z,23.01
2017-05-18T07:15:38.838Z,23.07
2017-05-18T07:16:40.693Z,23.05
2017-05-18T07:17:42.545Z,23.05
2017-05-18T07:18:44.376Z,23.05
2017-05-18T07:19:46.225Z,23.02
2017-05-18T07:20:48.089Z,23.01
2017-05-18T07:21:49.939Z,23.04
2017-05-18T07:22:51.761Z,23.04
2017-05-18T07:23:53.590Z,23.05
2017-05-18T07:24:55.720Z,23.00
2017-05-18T07:25:57.575Z,23.13
2017-05-18T07:26:59.429Z,23.16
2017-05-18T07:28:01.281Z,23.19
2017-05-18T07:29:03.106Z,23.23
2017-05-18T07:30:05.133Z,23.27
2017-05-18T07:31:06.993Z,23.31
2017-05-18T07:32:08.835Z,23.27
2017-05-18T07:33:10.666Z,23.23
2017-05-18T07:34:12.522Z,23.28
2017-05-18T07:35:14.377Z,23.33
2017-05-18T07:36:16.223Z,23.36
2017-05-18T07:37:18.051Z,23.40
2017-05-18T07:38:19.905Z,23.39
2017-05-18T07:39:21.766Z,23.38
2017-05-18T07:40:23.814Z,23.33
2017-05-18T07:41:25.669Z,23.39
2017-05-18T07:42:27.522Z,23.33
2017-05-18T07:43:29.378Z,23.36
2017-05-18T07:44:31.229Z,23.40
2017-05-18T07:45:33.086Z,23.36
2017-05-18T07:46:34.906Z,23.35
2017-05-18T07:47:36.760Z,23.28
2017-05-18T07:48:38.617Z,23.27
2017-05-18T07:49:40.443Z,23.33
2017-05-18T07:50:42.398Z,23.35
2017-05-18T07:51:44.253Z,23.35
2017-05-18T07:52:46.109Z,23.36
2017-05-18T07:53:47.974Z,23.35
2017-05-18T07:54:49.823Z,23.39
2017-05-18T07:55:51.677Z,23.38
2017-05-18T07:56:53.529Z,23.33
2017-05-18T07:57:55.360Z,23.40
2017-05-18T07:58:57.209Z,23.48
2017-05-18T07:59:59.042Z,23.43
2017-05-18T08:01:01.091Z,23.46
2017-05-18T08:02:02.951Z,23.50
2017-05-18T08:03:04.797Z,23.51
2017-05-18T08:04:06.628Z,23.51
2017-05-18T08:05:08.456Z,23.47
2017-05-18T08:06:10.307Z,23.65
2017-05-18T08:07:12.129Z,23.55
2017-05-18T08:08:13.987Z,23.48
2017-05-18T08:09:15.818Z,23.48
2017-05-18T08:10:17.669Z,23.53
2017-05-18T08:11:19.525Z,23.50
2017-05-18T08:12:21.380Z,23.50
2017-05-18T08:13:23.211Z,23.61
2017-05-18T08:14:25.062Z,23.53
2017-05-18T08:15:26.925Z,23.50
2017-05-18T08:16:29.051Z,23.54
2017-05-18T08:17:30.899Z,23.53
2017-05-18T08:18:32.724Z,23.63
2017-05-18T08:19:34.583Z,23.63
2017-05-18T08:20:36.440Z,23.60
2017-05-18T08:21:38.392Z,23.50
2017-05-18T08:22:40.223Z,23.55
2017-05-18T08:23:42.067Z,23.65
2017-05-18T08:24:43.901Z,23.66
2017-05-18T08:25:45.730Z,23.61
2017-05-18T08:26:47.878Z,23.69
2017-05-18T08:27:49.736Z,23.72
2017-05-18T08:28:51.593Z,23.66
2017-05-18T08:29:53.446Z,23.63
2017-05-18T08:30:55.302Z,23.65
2017-05-18T08:31:57.458Z,23.66
2017-05-18T08:32:59.310Z,23.76
2017-05-18T08:34:01.168Z,23.72
2017-05-18T08:35:02.986Z,23.70
2017-05-18T08:36:04.819Z,23.76
2017-05-18T08:37:06.671Z,23.79
2017-05-18T08:38:08.534Z,23.90
2017-05-18T08:39:10.386Z,23.85
2017-05-18T08:40:12.243Z,23.98
2017-05-18T08:41:14.095Z,23.93
2017-05-18T08:42:15.951Z,23.98
2017-05-18T08:43:17.808Z,23.95
2017-05-18T08:44:19.659Z,24.03
2017-05-18T08:45:21.516Z,24.02
2017-05-18T08:46:23.339Z,23.94
2017-05-18T08:47:28.393Z,23.95
2017-05-18T08:48:30.222Z,23.95
2017-05-18T08:49:32.049Z,23.98
2017-05-18T08:50:33.906Z,23.97
2017-05-18T08:51:35.753Z,23.93
2017-05-18T08:52:40.969Z,23.94
2017-05-18T08:53:42.817Z,23.98
2017-05-18T08:54:44.671Z,23.98
2017-05-18T08:55:46.502Z,23.91
2017-05-18T08:56:48.360Z,23.94
2017-05-18T08:57:50.509Z,23.98
2017-05-18T08:58:52.338Z,23.98
2017-05-18T08:59:54.187Z,23.98
2017-05-18T09:00:56.026Z,23.98
2017-05-18T09:01:57.876Z,24.06
2017-05-18T09:02:59.727Z,24.09
2017-05-18T09:04:01.555Z,24.08
2017-05-18T09:05:03.388Z,24.05
2017-05-18T09:06:05.234Z,24.06
2017-05-18T09:07:07.069Z,24.12
2017-05-18T09:08:09.118Z,24.08
2017-05-18T09:09:10.971Z,24.06
2017-05-18T09:10:12.823Z,24.10
2017-05-18T09:11:14.674Z,24.03
2017-05-18T09:12:16.524Z,24.09
2017-05-18T09:13:18.657Z,24.06
2017-05-18T09:14:20.487Z,24.09
2017-05-18T09:15:22.340Z,24.08
2017-05-18T09:16:24.169Z,24.09
2017-05-18T09:17:26.021Z,24.10
2017-05-18T09:18:27.879Z,24.13
2017-05-18T09:19:29.730Z,24.16
2017-05-18T09:20:31.559Z,24.12
2017-05-18T09:21:33.419Z,24.13
2017-05-18T09:22:35.272Z,24.25
2017-05-18T09:23:37.224Z,24.16
2017-05-18T09:24:39.058Z,24.18
2017-05-18T09:25:40.919Z,24.32
2017-05-18T09:26:42.763Z,24.34
2017-05-18T09:27:44.598Z,24.37
2017-05-18T09:28:49.601Z,24.39
2017-05-18T09:29:51.431Z,24.31
2017-05-18T09:30:53.281Z,24.40
2017-05-18T09:31:55.136Z,24.42
2017-05-18T09:32:56.967Z,24.45
2017-05-18T09:33:59.024Z,24.46
2017-05-18T09:35:00.876Z,24.47
2017-05-18T09:36:02.735Z,24.46
2017-05-18T09:37:04.595Z,24.46
2017-05-18T09:38:06.447Z,24.42
2017-05-18T09:39:08.297Z,24.50
2017-05-18T09:40:10.127Z,24.43
2017-05-18T09:41:11.980Z,24.45
2017-05-18T09:42:13.809Z,24.43
2017-05-18T09:43:15.637Z,24.43
2017-05-18T09:44:17.694Z,24.45
2017-05-18T09:45:19.523Z,24.47
2017-05-18T09:46:21.378Z,24.43
2017-05-18T09:47:23.230Z,24.52
2017-05-18T09:48:25.089Z,24.55
2017-05-18T09:49:26.943Z,24.57
2017-05-18T09:50:28.797Z,24.52
2017-05-18T09:51:30.658Z,24.76
2017-05-18T09:52:32.516Z,24.73
2017-05-18T09:53:34.367Z,24.71
2017-05-18T09:54:36.599Z,24.65
2017-05-18T09:55:38.424Z,24.84
2017-05-18T09:56:40.253Z,24.73
2017-05-18T09:57:42.111Z,24.71
2017-05-18T09:58:43.959Z,24.69
2017-05-18T09:59:45.813Z,24.68
2017-05-18T10:00:47.641Z,24.58
2017-05-18T10:01:49.496Z,24.68
2017-05-18T10:02:51.349Z,24.67
2017-05-18T10:03:53.206Z,24.69
2017-05-18T10:04:55.159Z,24.71
2017-05-18T10:05:57.008Z,24.76
2017-05-18T10:06:58.839Z,24.73
2017-05-18T10:08:00.665Z,24.84
2017-05-18T10:09:02.498Z,24.84
2017-05-18T10:10:04.554Z,24.77
2017-05-18T10:11:06.411Z,24.85
2017-05-18T10:12:08.267Z,24.87
2017-05-18T10:13:10.119Z,24.77
2017-05-18T10:14:11.950Z,24.78
2017-05-18T10:15:13.807Z,24.88
2017-05-18T10:16:15.630Z,24.90
2017-05-18T10:17:17.455Z,24.87
2017-05-18T10:18:19.322Z,24.90
2017-05-18T10:19:21.168Z,24.87
2017-05-18T10:20:23.323Z,24.88
2017-05-18T10:21:25.174Z,24.95
2017-05-18T10:22:27.036Z,24.91
2017-05-18T10:23:28.885Z,25.03
2017-05-18T10:24:30.718Z,25.02
2017-05-18T10:25:32.772Z,25.08
2017-05-18T10:26:34.627Z,25.06
2017-05-18T10:27:36.481Z,25.13
2017-05-18T10:28:38.342Z,25.09
2017-05-18T10:29:40.195Z,25.05
2017-05-18T10:30:42.448Z,25.05
2017-05-18T10:31:44.302Z,25.05
2017-05-18T10:32:46.122Z,25.03
2017-05-18T10:33:47.983Z,25.08
2017-05-18T10:34:49.840Z,25.08
2017-05-18T10:35:51.944Z,25.03
2017-05-18T10:36:53.771Z,25.00
2017-05-18T10:37:55.628Z,25.05
2017-05-18T10:38:57.481Z,25.05
2017-05-18T10:39:59.314Z,25.20
2017-05-18T10:41:01.467Z,25.15
2017-05-18T10:42:03.303Z,25.08
2017-05-18T10:43:05.153Z,25.15
2017-05-18T10:44:06.980Z,25.10
2017-05-18T10:45:08.809Z,25.15
2017-05-18T10:46:10.666Z,25.10
2017-05-18T10:47:12.523Z,25.03
2017-05-18T10:48:14.369Z,25.13
2017-05-18T10:49:16.204Z,25.15
2017-05-18T10:50:18.057Z,25.10
2017-05-18T10:51:19.983Z,25.13
2017-05-18T10:52:21.835Z,25.14
2017-05-18T10:53:23.692Z,25.05
2017-05-18T10:54:25.540Z,25.13
2017-05-18T10:55:27.405Z,25.10
2017-05-18T10:56:29.259Z,25.09
2017-05-18T10:57:31.078Z,25.10
2017-05-18T10:58:32.906Z,25.14
2017-05-18T10:59:34.736Z,25.13
2017-05-18T11:00:36.567Z,25.09
2017-05-18T11:01:38.417Z,25.15
2017-05-18T11:02:40.247Z,25.08
2017-05-18T11:03:42.110Z,25.18
2017-05-18T11:04:44.019Z,25.23
2017-05-18T11:05:45.842Z,25.13
2017-05-18T11:06:47.703Z,25.10
2017-05-18T11:07:49.555Z,25.23
2017-05-18T11:08:51.408Z,25.23
2017-05-18T11:09:53.286Z,25.24
2017-05-18T11:10:55.116Z,25.24
2017-05-18T11:11:57.168Z,25.20
2017-05-18T11:12:59.019Z,25.21
2017-05-18T11:14:00.878Z,25.23
2017-05-18T11:15:02.735Z,25.38
2017-05-18T11:16:04.590Z,25.32
2017-05-18T11:17:06.445Z,25.42
2017-05-18T11:18:08.301Z,25.35
2017-05-18T11:19:10.127Z,25.39
2017-05-18T11:20:11.975Z,25.45
2017-05-18T11:21:13.807Z,25.45
2017-05-18T11:22:15.964Z,25.50
2017-05-18T11:23:17.821Z,25.38
2017-05-18T11:24:19.681Z,25.40
2017-05-18T11:25:21.512Z,25.39
2017-05-18T11:26:23.342Z,25.42
2017-05-18T11:27:25.201Z,25.42
2017-05-18T11:28:27.059Z,25.33
2017-05-18T11:29:28.906Z,25.43
2017-05-18T11:30:30.742Z,25.36
2017-05-18T11:31:32.597Z,25.38
2017-05-18T11:32:34.647Z,25.35
2017-05-18T11:33:36.505Z,25.36
2017-05-18T11:34:38.336Z,25.36
2017-05-18T11:35:40.192Z,25.45
2017-05-18T11:36:42.048Z,25.45
2017-05-18T11:37:44.248Z,25.51
2017-05-18T11:38:46.080Z,25.60
2017-05-18T11:39:47.910Z,25.58
2017-05-18T11:40:49.739Z,25.57
2017-05-18T11:41:51.596Z,25.65
2017-05-18T11:42:53.751Z,25.67
2017-05-18T11:43:55.577Z,25.67
2017-05-18T11:44:57.411Z,25.67
2017-05-18T11:45:59.265Z,25.62
2017-05-18T11:47:01.126Z,25.69
2017-05-18T11:48:03.176Z,25.72
2017-05-18T11:49:05.437Z,25.67
2017-05-18T11:50:07.300Z,25.64
2017-05-18T11:51:09.133Z,25.61
2017-05-18T11:52:10.991Z,25.67
2017-05-18T11:53:12.872Z,25.70
2017-05-18T11:54:14.699Z,25.60
2017-05-18T11:55:16.557Z,25.64
2017-05-18T11:56:18.412Z,25.76
2017-05-18T11:57:20.270Z,25.70
2017-05-18T11:58:22.224Z,25.79
2017-05-18T11:59:24.083Z,25.73
2017-05-18T12:00:25.936Z,25.72
2017-05-18T12:01:27.791Z,25.62
2017-05-18T12:02:29.653Z,25.73
2017-05-18T12:03:31.756Z,25.76
2017-05-18T12:04:33.609Z,25.72
2017-05-18T12:05:35.467Z,25.83
2017-05-18T12:06:37.293Z,25.80
2017-05-18T12:07:39.121Z,25.80
2017-05-18T12:08:41.177Z,25.83
2017-05-18T12:09:43.030Z,25.80
2017-05-18T12:10:44.885Z,25.82
2017-05-18T12:11:46.741Z,25.83
2017-05-18T12:12:48.575Z,25.80
2017-05-18T12:13:50.627Z,25.83
2017-05-18T12:14:52.454Z,25.83
2017-05-18T12:15:54.307Z,25.91
2017-05-18T12:16:56.166Z,25.82
2017-05-18T12:17:57.995Z,25.87
2017-05-18T12:19:00.203Z,25.82
2017-05-18T12:20:02.028Z,25.85
2017-05-18T12:21:03.886Z,25.95
2017-05-18T12:22:05.737Z,25.95
2017-05-18T12:23:07.598Z,25.90
2017-05-18T12:24:09.459Z,25.97
2017-05-18T12:25:11.313Z,26.01
2017-05-18T12:26:13.173Z,25.98
2017-05-18T12:27:15.029Z,26.06
2017-05-18T12:28:16.882Z,26.12
2017-05-18T12:29:18.942Z,26.07
2017-05-18T12:30:20.793Z,26.18
2017-05-18T12:31:22.655Z,26.12
2017-05-18T12:32:24.510Z,26.09
2017-05-18T12:33:26.364Z,26.12
2017-05-18T12:34:28.214Z,26.10
2017-05-18T12:35:30.071Z,26.05
2017-05-18T12:36:31.903Z,26.09
2017-05-18T12:37:33.862Z,26.21
2017-05-18T12:38:35.721Z,26.23
2017-05-18T12:39:37.703Z,26.32
2017-05-18T12:40:39.555Z,26.25
2017-05-18T12:41:41.415Z,26.30
2017-05-18T12:42:43.249Z,26.33
2017-05-18T12:43:45.106Z,26.33
2017-05-18T12:44:47.005Z,26.32
2017-05-18T12:45:48.855Z,26.32
2017-05-18T12:46:50.691Z,26.28
2017-05-18T12:47:52.517Z,26.29
2017-05-18T12:48:54.349Z,26.32
2017-05-18T12:49:56.211Z,26.26
2017-05-18T12:50:58.063Z,26.32
2017-05-18T12:51:59.921Z,26.29
2017-05-18T12:53:01.745Z,26.32
2017-05-18T12:54:03.576Z,26.28
2017-05-18T12:55:05.534Z,26.30
2017-05-18T12:56:07.391Z,26.25
2017-05-18T12:57:09.254Z,26.30
2017-05-18T12:58:11.100Z,26.32
2017-05-18T12:59:12.960Z,26.32
2017-05-18T13:00:14.821Z,26.29
2017-05-18T13:01:16.670Z,26.29
2017-05-18T13:02:18.501Z,26.32
2017-05-18T13:03:20.557Z,26.28
2017-05-18T13:04:22.409Z,26.29
2017-05-18T13:05:24.344Z,26.21
2017-05-18T13:06:26.201Z,26.21
2017-05-18T13:07:28.032Z,26.21
2017-05-18T13:08:29.896Z,26.23
2017-05-18T13:09:31.745Z,26.26
2017-05-18T13:10:33.608Z,26.21
2017-05-18T13:11:35.461Z,26.29
2017-05-18T13:12:37.321Z,26.30
2017-05-18T13:13:39.179Z,26.30
2017-05-18T13:14:41.035Z,26.36
2017-05-18T13:15:43.087Z,26.30
2017-05-18T13:16:44.940Z,26.45